Time;durP1;ratioP1;P1;durP2;ratioP2;P2;SDS_P1;SDS_P2;PMS_P1;PMS_P2;Temp;Humidity;BMP_temperature;BMP_pressure;BME280_temperature;BME280_humidity;BME280_pressure;Samples;Min_cycle;Max_cycle;Signal;HPM_P1;HPM_P2
2023/01/24 00:01:40;;;;;;;99.43;39.37;;;;;;;1.78;100.00;100086.44;4966146;28;20282;-61
2023/01/24 00:04:06;;;;;;;98.47;38.80;;;;;;;1.87;100.00;100098.59;4965771;28;20061;-59
2023/01/24 00:06:31;;;;;;;99.40;39.03;;;;;;;1.91;100.00;100107.19;4970522;28;20054;-61
2023/01/24 00:08:58;;;;;;;98.83;38.53;;;;;;;1.75;100.00;100077.88;4969181;28;20158;-60
2023/01/24 00:11:23;;;;;;;97.63;37.43;;;;;;;1.84;100.00;100071.53;4969100;28;20089;-60
2023/01/24 00:13:50;;;;;;;99.30;38.80;;;;;;;2.00;100.00;100094.88;4967524;28;20039;-59
2023/01/24 00:16:18;;;;;;;99.37;38.23;;;;;;;1.94;100.00;100092.13;4971168;28;20039;-61
2023/01/24 00:18:44;;;;;;;99.30;38.43;;;;;;;1.96;100.00;100088.84;4970257;28;20034;-60
2023/01/24 00:21:14;;;;;;;99.00;38.13;;;;;;;1.95;100.00;100094.72;4969904;28;20474;-59
2023/01/24 00:23:46;;;;;;;84.80;35.03;;;;;;;1.93;100.00;100093.78;4970171;28;20409;-59
2023/01/24 00:26:13;;;;;;;90.37;36.10;;;;;;;1.95;100.00;100106.50;4968914;28;20779;-59
2023/01/24 00:28:41;;;;;;;92.40;36.50;;;;;;;1.81;100.00;100078.13;4968335;28;20053;-60
2023/01/24 00:31:07;;;;;;;92.37;36.30;;;;;;;1.93;100.00;100103.03;4971240;28;20050;-59
2023/01/24 00:33:33;;;;;;;92.50;36.07;;;;;;;1.90;100.00;100088.63;4968143;28;20992;-59
2023/01/24 00:35:59;;;;;;;92.97;36.40;;;;;;;1.91;100.00;100081.91;4969475;28;20031;-59
2023/01/24 00:38:28;;;;;;;92.97;36.10;;;;;;;1.99;100.00;100106.69;4969835;28;20315;-61
2023/01/24 00:40:55;;;;;;;93.13;36.33;;;;;;;2.08;100.00;100111.22;4968981;28;20042;-59
2023/01/24 00:43:20;;;;;;;94.30;36.60;;;;;;;1.91;100.00;100092.00;4984645;28;20551;-60
2023/01/24 00:45:46;;;;;;;93.57;36.23;;;;;;;2.02;100.00;100113.50;4969917;28;20038;-60
2023/01/24 00:48:13;;;;;;;93.80;36.53;;;;;;;2.01;100.00;100106.72;4966460;28;20050;-60
2023/01/24 00:50:39;;;;;;;94.43;36.63;;;;;;;1.95;100.00;100099.78;4968232;28;20438;-60
2023/01/24 00:53:05;;;;;;;93.77;36.23;;;;;;;1.92;100.00;100104.69;4970180;28;20035;-60
2023/01/24 00:55:33;;;;;;;94.70;36.63;;;;;;;1.89;100.00;100091.06;4968403;28;20049;-59
2023/01/24 00:57:59;;;;;;;94.37;36.53;;;;;;;2.00;100.00;100120.16;4984525;28;20042;-60
2023/01/24 01:00:25;;;;;;;94.47;36.87;;;;;;;2.01;100.00;100115.16;4971935;28;20501;-59
2023/01/24 01:02:51;;;;;;;93.07;35.87;;;;;;;1.97;100.00;100118.38;4967701;28;20030;-59
2023/01/24 01:05:17;;;;;;;94.10;36.43;;;;;;;1.95;100.00;100104.84;4983655;28;20081;-60
2023/01/24 01:07:44;;;;;;;93.27;35.93;;;;;;;1.99;100.00;100116.78;4968158;28;20350;-59
2023/01/24 01:10:10;;;;;;;94.50;36.60;;;;;;;2.01;100.00;100115.16;4969950;28;20049;-60
2023/01/24 01:12:36;;;;;;;93.83;36.33;;;;;;;1.98;100.00;100109.13;4983460;28;20162;-61
2023/01/24 01:15:03;;;;;;;92.33;35.80;;;;;;;1.75;100.00;100078.75;4970139;28;20051;-60
2023/01/24 01:17:30;;;;;;;93.23;36.37;;;;;;;1.98;100.00;100106.59;4965571;28;20154;-63
2023/01/24 01:19:58;;;;;;;93.60;36.40;;;;;;;2.05;100.00;100103.50;4968757;28;20034;-61
2023/01/24 01:22:24;;;;;;;92.53;36.50;;;;;;;1.78;100.00;100076.34;4951008;28;20470;-60
2023/01/24 01:24:49;;;;;;;94.33;36.73;;;;;;;1.84;100.00;100084.19;4968781;28;20042;-59
2023/01/24 01:27:15;;;;;;;92.80;36.37;;;;;;;1.87;100.00;100100.28;4968039;28;20035;-59
2023/01/24 01:29:41;;;;;;;94.07;36.70;;;;;;;1.94;100.00;100122.47;4968147;28;20105;-60
2023/01/24 01:32:07;;;;;;;92.87;35.93;;;;;;;1.96;100.00;100116.66;4968701;28;20422;-60
2023/01/24 01:34:32;;;;;;;93.90;36.50;;;;;;;1.99;100.00;100120.97;4976143;28;20084;-61
2023/01/24 01:36:58;;;;;;;93.57;36.07;;;;;;;1.93;100.00;100116.53;4970589;28;20052;-59
2023/01/24 01:39:25;;;;;;;94.30;36.53;;;;;;;2.01;100.00;100129.47;4971928;28;20050;-60
2023/01/24 01:41:51;;;;;;;94.47;36.70;;;;;;;1.97;100.00;100128.50;4972893;28;20116;-60
2023/01/24 01:47:03;;;;;;;94.93;36.97;;;;;;;2.07;100.00;100128.06;4974524;28;20065;-60
2023/01/24 01:49:29;;;;;;;95.10;37.27;;;;;;;1.95;100.00;100107.38;4973032;28;20046;-59
2023/01/24 01:52:03;;;;;;;94.83;36.53;;;;;;;1.92;100.00;100108.88;4972793;28;20050;-59
2023/01/24 01:54:35;;;;;;;94.33;36.13;;;;;;;1.90;100.00;100110.50;4973622;28;20058;-60
2023/01/24 01:57:09;;;;;;;94.50;36.60;;;;;;;2.10;100.00;100143.34;4972997;28;20049;-60
2023/01/24 01:59:53;;;;;;;95.07;36.93;;;;;;;2.10;100.00;100138.28;4986314;28;20039;-59
2023/01/24 02:02:21;;;;;;;94.73;36.33;;;;;;;2.04;100.00;100124.53;4973820;28;20042;-60
2023/01/24 02:04:52;;;;;;;94.70;36.50;;;;;;;2.03;100.00;100132.94;4972325;28;20046;-60
2023/01/24 02:07:36;;;;;;;94.30;36.47;;;;;;;1.91;100.00;100107.19;4986546;28;20042;-61
2023/01/24 02:10:02;;;;;;;95.13;36.77;;;;;;;2.05;100.00;100123.72;4971020;28;20074;-61
2023/01/24 02:12:32;;;;;;;95.10;36.63;;;;;;;1.96;100.00;100121.72;4987822;28;20074;-60
2023/01/24 02:17:48;;;;;;;95.97;37.03;;;;;;;2.02;100.00;100132.06;4971505;28;20420;-59
2023/01/24 02:20:32;;;;;;;96.57;37.43;;;;;;;2.04;100.00;100135.50;4969808;28;20545;-59
2023/01/24 02:23:11;;;;;;;96.17;37.17;;;;;;;2.05;100.00;100141.44;4971689;28;20575;-60
2023/01/24 02:25:52;;;;;;;95.43;36.53;;;;;;;2.10;100.00;100137.41;4973222;28;20038;-60
2023/01/24 02:28:18;;;;;;;95.73;36.90;;;;;;;2.13;100.00;100135.88;4979087;28;20042;-59
2023/01/24 02:30:43;;;;;;;96.27;37.07;;;;;;;2.07;100.00;100133.13;4972533;28;20509;-59
2023/01/24 02:33:17;;;;;;;96.00;37.07;;;;;;;1.96;100.00;100110.72;4973330;28;20074;-61
2023/01/24 02:35:44;;;;;;;95.10;36.57;;;;;;;2.19;100.00;100142.84;4969839;28;20073;-59
2023/01/24 02:38:19;;;;;;;95.63;36.83;;;;;;;2.14;100.00;100131.69;4971353;28;20128;-59
2023/01/24 02:40:47;;;;;;;94.47;36.27;;;;;;;2.18;100.00;100139.44;4969844;28;20043;-60
2023/01/24 02:43:14;;;;;;;96.03;36.87;;;;;;;1.95;100.00;100114.09;4971385;28;20126;-60
2023/01/24 02:45:40;;;;;;;94.83;36.30;;;;;;;2.20;100.00;100149.63;4972682;28;20038;-60
2023/01/24 02:48:05;;;;;;;96.53;37.20;;;;;;;2.01;100.00;100122.75;4968238;28;20130;-60
2023/01/24 02:53:29;;;;;;;96.07;36.90;;;;;;;2.11;100.00;100139.16;4971201;28;20042;-59
2023/01/24 02:53:30;;;;;;;95.57;37.17;;;;;;;2.12;100.00;100143.41;4971909;28;20083;-60
2023/01/24 02:58:47;;;;;;;95.60;36.60;;;;;;;2.09;100.00;100145.81;4986477;28;20045;-59
2023/01/24 03:01:14;;;;;;;96.70;37.07;;;;;;;2.07;100.00;100139.84;4984464;28;20045;-60
2023/01/24 03:03:42;;;;;;;96.03;36.67;;;;;;;2.07;100.00;100145.78;4973465;28;20410;-59
2023/01/24 03:06:10;;;;;;;96.13;36.97;;;;;;;2.07;100.00;100139.84;4970992;28;20047;-60
2023/01/24 03:08:37;;;;;;;96.27;36.97;;;;;;;2.01;100.00;100134.53;4985934;28;20453;-59
2023/01/24 03:11:11;;;;;;;96.70;37.33;;;;;;;2.08;100.00;100146.63;4984066;28;20089;-60
2023/01/24 03:35:36;;;;;;;94.77;36.57;;;;;;;1.95;100.00;100140.25;4986946;28;20046;-59
2023/01/24 03:40:50;;;;;;;95.37;36.83;;;;;;;2.04;100.00;100160.81;4974462;28;20045;-59
2023/01/24 03:43:16;;;;;;;95.13;36.60;;;;;;;2.03;100.00;100148.97;4970671;28;20066;-60
2023/01/24 03:45:42;;;;;;;95.43;37.37;;;;;;;1.99;100.00;100147.13;4984787;28;20034;-60
2023/01/24 03:48:26;;;;;;;95.53;37.37;;;;;;;2.05;100.00;100154.09;4986316;28;20115;-59
2023/01/24 03:53:36;;;;;;;93.90;36.17;;;;;;;2.04;100.00;100157.41;4970391;28;20066;-59
2023/01/24 03:56:02;;;;;;;94.60;36.70;;;;;;;2.01;100.00;100155.63;4971434;28;20043;-61
2023/01/24 03:58:35;;;;;;;94.13;36.30;;;;;;;1.95;100.00;100147.81;4986519;28;20623;-60
2023/01/24 04:01:04;;;;;;;94.07;36.20;;;;;;;1.97;100.00;100153.78;4985637;28;20043;-58
2023/01/24 04:03:55;;;;;;;95.23;36.53;;;;;;;2.28;100.00;100161.78;4977088;28;20042;-58
2023/01/24 04:06:21;;;;;;;94.97;36.37;;;;;;;2.04;100.00;100132.13;4971853;28;20161;-58
2023/01/24 04:08:47;;;;;;;95.93;36.97;;;;;;;2.20;100.00;100154.69;4971004;28;20093;-58
2023/01/24 04:11:12;;;;;;;95.90;36.90;;;;;;;2.25;100.00;100156.56;4972557;28;20050;-57
2023/01/24 04:13:38;;;;;;;96.60;37.00;;;;;;;2.10;100.00;100145.88;4976586;28;20130;-57
2023/01/24 04:16:06;;;;;;;95.40;36.50;;;;;;;2.20;100.00;100168.22;4985755;28;20049;-58
2023/01/24 04:18:46;;;;;;;95.93;36.93;;;;;;;2.23;100.00;100168.31;4983950;28;20057;-58
2023/01/24 04:21:12;;;;;;;95.40;36.80;;;;;;;2.15;100.00;100162.09;4985671;28;20054;-57
2023/01/24 04:23:39;;;;;;;95.70;36.70;;;;;;;2.35;100.00;100172.09;4984872;28;20118;-58
2023/01/24 04:26:04;;;;;;;96.67;37.17;;;;;;;2.08;100.00;100150.00;4969602;28;20050;-58
2023/01/24 04:28:32;;;;;;;96.70;37.10;;;;;;;2.19;100.00;100174.06;4972162;28;20050;-58
2023/01/24 04:31:02;;;;;;;96.63;37.10;;;;;;;2.30;100.00;100175.34;4982897;28;20034;-56
2023/01/24 04:33:51;;;;;;;94.90;36.90;;;;;;;2.06;100.00;100169.31;4968406;28;20061;-59
2023/01/24 04:36:22;;;;;;;95.33;36.67;;;;;;;1.99;100.00;100149.66;4968603;28;20046;-58
2023/01/24 04:38:48;;;;;;;95.33;36.83;;;;;;;2.17;100.00;100169.72;4969209;28;20053;-56
2023/01/24 04:41:28;;;;;;;95.60;37.10;;;;;;;2.32;100.00;100172.88;4984556;28;20058;-58
2023/01/24 04:43:55;;;;;;;95.60;36.83;;;;;;;2.11;100.00;100166.97;4984058;28;20053;-57
2023/01/24 04:46:21;;;;;;;94.43;36.80;;;;;;;2.02;100.00;100166.63;4967799;28;20038;-56
2023/01/24 04:48:54;;;;;;;93.87;36.60;;;;;;;2.07;100.00;100167.66;4984309;28;20096;-57
2023/01/24 04:51:24;;;;;;;96.70;37.40;;;;;;;2.06;100.00;100165.94;4984265;28;20918;-58
2023/01/24 04:53:51;;;;;;;95.17;36.30;;;;;;;1.84;100.00;100146.50;4984479;28;20430;-59
2023/01/24 04:56:20;;;;;;;96.73;36.93;;;;;;;1.80;100.00;100165.75;4985146;28;20042;-58
2023/01/24 04:58:46;;;;;;;95.73;36.90;;;;;;;1.88;100.00;100190.47;4968956;28;20071;-58
2023/01/24 05:01:13;;;;;;;96.30;36.83;;;;;;;1.78;100.00;100169.88;4971762;28;20073;-56
2023/01/24 05:03:50;;;;;;;97.33;37.30;;;;;;;1.74;100.00;100182.34;4969416;28;20074;-55
2023/01/24 05:06:15;;;;;;;94.93;36.23;;;;;;;1.79;100.00;100184.25;4972698;28;20409;-56
2023/01/24 05:08:42;;;;;;;96.60;37.30;;;;;;;1.90;100.00;100199.88;4969067;28;20057;-55
2023/01/24 05:11:08;;;;;;;96.63;37.00;;;;;;;1.79;100.00;100193.50;4955503;28;20031;-55
2023/01/24 05:13:40;;;;;;;95.77;37.17;;;;;;;1.70;100.00;100188.06;4973112;28;20054;-59
2023/01/24 05:16:06;;;;;;;95.23;36.97;;;;;;;1.73;100.00;100196.66;4983616;28;20039;-57
2023/01/24 05:18:32;;;;;;;94.63;36.57;;;;;;;1.65;100.00;100172.72;4958246;28;20046;-56
2023/01/24 05:21:08;;;;;;;94.57;36.67;;;;;;;1.49;100.00;100152.66;4984691;28;20515;-59
2023/01/24 05:23:34;;;;;;;94.53;36.33;;;;;;;1.68;100.00;100180.44;4969541;28;20039;-59
2023/01/24 05:26:01;;;;;;;95.63;36.87;;;;;;;1.73;100.00;100181.50;4970169;28;20053;-56
2023/01/24 05:28:29;;;;;;;94.77;36.40;;;;;;;1.69;100.00;100177.13;4985775;28;20050;-55
2023/01/24 05:31:08;;;;;;;94.43;36.43;;;;;;;1.56;100.00;100162.25;4970121;28;20038;-56
2023/01/24 05:33:35;;;;;;;94.77;37.23;;;;;;;1.70;100.00;100183.00;4983044;28;20042;-57
2023/01/24 05:36:03;;;;;;;94.03;36.10;;;;;;;1.65;100.00;100176.94;4985129;28;20602;-56
2023/01/24 05:38:33;;;;;;;93.83;36.60;;;;;;;1.77;100.00;100200.16;4979717;28;20056;-58
2023/01/24 05:41:01;;;;;;;94.93;37.20;;;;;;;1.72;100.00;100202.50;4968374;28;20405;-57
2023/01/24 05:43:28;;;;;;;94.57;37.00;;;;;;;1.74;100.00;100207.63;4985761;28;20525;-57
2023/01/24 05:46:03;;;;;;;94.37;36.87;;;;;;;1.59;100.00;100185.09;4983847;28;20042;-57
2023/01/24 05:48:34;;;;;;;94.23;36.57;;;;;;;1.70;100.00;100199.03;4969376;28;20059;-58
2023/01/24 05:51:05;;;;;;;93.77;36.30;;;;;;;1.83;100.00;100224.03;4983785;28;20097;-56
2023/01/24 05:53:33;;;;;;;94.83;36.60;;;;;;;1.65;100.00;100198.00;4984132;28;20038;-57
2023/01/24 05:56:02;;;;;;;94.83;36.53;;;;;;;1.76;100.00;100214.47;4970227;28;20042;-58
2023/01/24 05:58:32;;;;;;;95.07;36.77;;;;;;;1.67;100.00;100193.00;4983643;28;20039;-57
2023/01/24 06:01:12;;;;;;;94.23;36.53;;;;;;;1.81;100.00;100217.19;4984709;28;20042;-56
2023/01/24 06:03:42;;;;;;;94.50;36.87;;;;;;;1.74;100.00;100216.06;4971821;28;20137;-58
2023/01/24 06:06:10;;;;;;;94.27;36.70;;;;;;;1.75;100.00;100204.28;4968819;28;20038;-59
2023/01/24 06:08:36;;;;;;;94.20;37.00;;;;;;;1.81;100.00;100218.06;4971495;28;20043;-53
2023/01/24 06:11:09;;;;;;;93.83;36.20;;;;;;;1.87;100.00;100217.44;4968203;28;20193;-64
2023/01/24 06:13:35;;;;;;;94.60;36.77;;;;;;;1.90;100.00;100229.34;4981064;28;20096;-59
2023/01/24 06:16:05;;;;;;;94.63;36.90;;;;;;;1.85;100.00;100229.16;4973661;28;20129;-57
2023/01/24 06:18:31;;;;;;;95.40;37.33;;;;;;;1.95;100.00;100222.81;4966671;28;20043;-58
2023/01/24 06:20:57;;;;;;;97.73;39.77;;;;;;;2.01;100.00;100233.16;4970092;28;20097;-59
2023/01/24 06:23:27;;;;;;;96.43;37.33;;;;;;;1.94;100.00;100228.66;4984807;28;20225;-58
2023/01/24 06:25:57;;;;;;;96.33;37.40;;;;;;;1.92;100.00;100235.31;4985799;28;20050;-57
2023/01/24 06:28:23;;;;;;;95.33;37.00;;;;;;;1.79;100.00;100241.53;4968423;28;20591;-56
2023/01/24 06:31:18;;;;;;;95.10;36.63;;;;;;;1.80;100.00;100241.59;4985440;28;20042;-59
2023/01/24 06:34:13;;;;;;;95.47;36.97;;;;;;;1.81;100.00;100233.22;4948595;28;20186;-56
2023/01/24 06:37:01;;;;;;;93.80;36.03;;;;;;;1.75;100.00;100227.03;4947978;28;20157;-60
2023/01/24 06:39:26;;;;;;;94.03;36.57;;;;;;;1.85;100.00;100254.44;4947629;28;20055;-58
2023/01/24 06:41:52;;;;;;;93.83;36.30;;;;;;;1.85;100.00;100259.50;4947766;28;20055;-59
2023/01/24 06:44:19;;;;;;;94.07;36.57;;;;;;;1.81;100.00;100268.63;4945895;28;20145;-59
2023/01/24 06:46:44;;;;;;;93.13;36.13;;;;;;;1.77;100.00;100276.88;4945647;28;20100;-59
2023/01/24 06:49:11;;;;;;;93.57;36.37;;;;;;;1.72;100.00;100250.53;4947064;28;20898;-59
2023/01/24 06:51:37;;;;;;;93.37;36.63;;;;;;;1.79;100.00;100275.25;4946557;28;20052;-58
2023/01/24 06:54:03;;;;;;;93.80;36.53;;;;;;;1.80;100.00;100269.41;4947160;28;20062;-59
2023/01/24 06:56:28;;;;;;;94.10;36.53;;;;;;;1.81;100.00;100278.75;4943941;28;20050;-57
2023/01/24 06:58:54;;;;;;;94.27;36.33;;;;;;;1.78;100.00;100272.69;4948701;28;20698;-59
2023/01/24 07:01:19;;;;;;;95.33;36.77;;;;;;;1.85;100.00;100279.72;4947426;28;20471;-59
2023/01/24 07:03:45;;;;;;;95.00;36.57;;;;;;;1.87;100.00;100284.84;4947638;28;20051;-60
2023/01/24 07:06:10;;;;;;;95.97;36.97;;;;;;;1.71;100.00;100263.97;4947009;28;20035;-59
2023/01/24 07:08:36;;;;;;;95.53;36.90;;;;;;;1.91;100.00;100284.19;4947725;28;20089;-59
2023/01/24 07:11:02;;;;;;;96.50;37.23;;;;;;;1.92;100.00;100288.41;4963495;28;20061;-59
2023/01/24 07:13:30;;;;;;;95.97;36.93;;;;;;;1.96;100.00;100290.28;4972238;28;20578;-59
2023/01/24 07:15:59;;;;;;;96.00;37.23;;;;;;;2.10;100.00;100306.91;4968639;28;20043;-59
2023/01/24 07:18:25;;;;;;;97.00;36.80;;;;;;;2.08;100.00;100296.69;4971328;28;20050;-59
2023/01/24 07:20:51;;;;;;;96.83;37.03;;;;;;;2.04;100.00;100297.38;4970547;28;20080;-60
2023/01/24 07:23:32;;;;;;;97.07;37.13;;;;;;;2.03;100.00;100302.41;4978029;28;20129;-60
2023/01/24 07:25:58;;;;;;;96.57;37.30;;;;;;;2.02;100.00;100288.00;4968542;28;20047;-60
2023/01/24 07:28:24;;;;;;;94.93;36.73;;;;;;;2.01;100.00;100303.97;4970530;28;20047;-61
2023/01/24 07:30:52;;;;;;;94.50;36.47;;;;;;;1.85;100.00;100279.72;4967406;28;20062;-61
2023/01/24 07:33:18;;;;;;;95.73;36.63;;;;;;;2.00;100.00;100290.47;4969432;28;20161;-60
2023/01/24 07:35:43;;;;;;;95.47;36.80;;;;;;;2.08;100.00;100308.50;4969591;28;20043;-60
2023/01/24 07:38:11;;;;;;;96.13;36.83;;;;;;;2.09;100.00;100318.66;4971143;28;20043;-60
2023/01/24 07:40:41;;;;;;;96.07;37.07;;;;;;;2.17;100.00;100312.25;4971267;28;20045;-59
2023/01/24 07:43:07;;;;;;;95.37;36.70;;;;;;;2.13;100.00;100317.13;4971569;28;20141;-60
2023/01/24 07:45:35;;;;;;;94.83;36.43;;;;;;;2.04;100.00;100296.50;4970522;28;20153;-60
2023/01/24 07:48:01;;;;;;;95.87;36.83;;;;;;;2.17;100.00;100324.91;4970302;28;20058;-59
2023/01/24 07:50:30;;;;;;;95.70;37.17;;;;;;;2.15;100.00;100302.91;4968267;28;20101;-59
2023/01/24 07:52:56;;;;;;;95.97;36.83;;;;;;;2.34;100.00;100323.06;4971351;28;20458;-60
2023/01/24 07:55:22;;;;;;;95.93;37.00;;;;;;;2.23;100.00;100304.06;4970637;28;20154;-58
2023/01/24 07:57:48;;;;;;;95.03;36.53;;;;;;;2.35;100.00;100296.09;4971509;28;20034;-60
2023/01/24 08:00:15;;;;;;;96.77;36.90;;;;;;;2.49;100.00;100326.25;4969328;28;20085;-60
2023/01/24 08:02:41;;;;;;;96.03;36.90;;;;;;;2.46;100.00;100331.16;4969653;28;20046;-60
2023/01/24 08:05:08;;;;;;;95.83;37.00;;;;;;;2.49;100.00;100326.25;4970192;28;20651;-59
2023/01/24 08:07:33;;;;;;;96.60;37.40;;;;;;;2.50;100.00;100334.69;4971602;28;20058;-57
2023/01/24 08:09:59;;;;;;;94.90;36.73;;;;;;;2.42;100.00;100309.06;4968582;28;20537;-60
2023/01/24 08:12:24;;;;;;;96.30;38.00;;;;;;;2.60;100.00;100340.19;4962897;28;20072;-58
2023/01/24 08:14:50;;;;;;;96.30;37.43;;;;;;;2.63;100.00;100327.63;4967634;28;20074;-59
2023/01/24 08:17:16;;;;;;;94.90;36.93;;;;;;;2.72;100.00;100340.66;4968520;28;20042;-56
2023/01/24 08:19:41;;;;;;;95.40;37.53;;;;;;;2.71;100.00;100323.75;4967788;28;20072;-55
2023/01/24 08:22:07;;;;;;;95.83;38.77;;;;;;;2.55;100.00;100323.06;4967517;28;20043;-58
2023/01/24 08:24:33;;;;;;;95.03;37.00;;;;;;;2.84;100.00;100347.91;4970650;28;20046;-49
2023/01/24 08:27:00;;;;;;;95.57;37.67;;;;;;;2.73;100.00;100339.88;4969707;28;20879;-53
2023/01/24 08:29:26;;;;;;;93.03;36.47;;;;;;;2.79;100.00;100346.84;4966523;28;20157;-59
2023/01/24 08:31:52;;;;;;;94.27;37.03;;;;;;;2.72;100.00;100342.31;4966293;28;20035;-58
2023/01/24 08:34:18;;;;;;;93.17;36.93;;;;;;;2.69;100.00;100340.56;4967394;28;20490;-60
2023/01/24 08:36:43;;;;;;;93.37;36.83;;;;;;;2.79;100.00;100354.44;4968112;28;20057;-59
2023/01/24 08:39:09;;;;;;;94.43;37.43;;;;;;;2.65;100.00;100351.34;4967270;28;20678;-60
2023/01/24 08:41:35;;;;;;;94.27;37.00;;;;;;;2.61;100.00;100341.03;4967350;28;20070;-60
2023/01/24 08:44:02;;;;;;;94.00;37.57;;;;;;;2.72;100.00;100360.06;4964337;28;20038;-60
2023/01/24 08:46:29;;;;;;;94.63;37.97;;;;;;;2.70;100.00;100338.88;4976645;28;20169;-61
2023/01/24 08:48:55;;;;;;;94.30;37.00;;;;;;;2.65;100.00;100343.75;4983057;28;20057;-61
2023/01/24 08:51:20;;;;;;;93.27;36.63;;;;;;;2.82;100.00;100361.28;4967591;28;20050;-61
2023/01/24 08:53:46;;;;;;;92.60;36.40;;;;;;;2.69;100.00;100337.16;4969075;28;20053;-60
2023/01/24 08:56:12;;;;;;;93.80;36.93;;;;;;;2.71;100.00;100346.56;4969430;28;20104;-58
2023/01/24 08:58:37;;;;;;;93.73;36.80;;;;;;;2.81;100.00;100357.03;4969016;28;20114;-59
2023/01/24 09:01:07;;;;;;;94.10;37.33;;;;;;;2.72;100.00;100325.47;4968969;28;20448;-59
2023/01/24 09:03:33;;;;;;;94.10;37.83;;;;;;;2.93;100.00;100357.53;4964766;28;20102;-59
2023/01/24 09:05:58;;;;;;;93.60;37.63;;;;;;;2.96;100.00;100366.09;4964180;28;20042;-60
2023/01/24 09:08:25;;;;;;;94.30;36.90;;;;;;;2.55;100.00;100331.53;4967252;28;20130;-59
2023/01/24 09:10:50;;;;;;;94.53;37.17;;;;;;;2.96;100.00;100361.03;4971553;28;20656;-60
2023/01/24 09:13:16;;;;;;;94.87;37.20;;;;;;;2.84;100.00;100369.81;4970472;28;20042;-60
2023/01/24 09:15:42;;;;;;;94.30;37.07;;;;;;;2.78;100.00;100367.91;4968590;28;20043;-59
2023/01/24 09:18:08;;;;;;;94.87;36.87;;;;;;;2.52;100.00;100379.50;4965675;28;20035;-59
2023/01/24 09:20:34;;;;;;;94.07;36.47;;;;;;;2.81;100.00;100359.56;4968874;28;20044;-61
2023/01/24 09:22:59;;;;;;;94.63;36.97;;;;;;;2.87;100.00;100380.94;4969639;28;20043;-59
2023/01/24 09:25:25;;;;;;;94.93;37.73;;;;;;;2.61;100.00;100361.31;4968092;28;20845;-58
2023/01/24 09:27:54;;;;;;;94.53;37.03;;;;;;;2.82;100.00;100384.09;4964434;28;20126;-62
2023/01/24 09:30:22;;;;;;;95.03;37.27;;;;;;;2.79;100.00;100379.78;4984970;28;20042;-59
2023/01/24 09:32:48;;;;;;;93.67;36.57;;;;;;;2.96;100.00;100391.44;4969032;28;20046;-60
2023/01/24 09:35:14;;;;;;;94.43;37.50;;;;;;;2.98;100.00;100389.81;4985288;28;20081;-57
2023/01/24 09:37:42;;;;;;;92.87;36.50;;;;;;;2.97;100.00;100372.03;4969120;28;20054;-58
2023/01/24 09:40:25;;;;;;;92.93;36.80;;;;;;;2.98;100.00;100379.69;4970249;28;20077;-59
2023/01/24 09:43:06;;;;;;;93.33;37.00;;;;;;;2.99;100.00;100405.88;4969254;28;20043;-59
2023/01/24 09:45:42;;;;;;;92.17;36.50;;;;;;;3.22;100.00;100378.09;4969417;28;20620;-59
2023/01/24 09:48:15;;;;;;;92.07;36.87;;;;;;;3.48;100.00;100401.88;4969081;28;20521;-59
2023/01/24 09:51:17;;;;;;;90.37;36.30;;;;;;;3.58;100.00;100398.03;4967537;28;20157;-59
2023/01/24 09:53:47;;;;;;;91.30;36.90;;;;;;;3.67;100.00;100401.78;4968551;28;20110;-61
2023/01/24 09:56:30;;;;;;;90.10;36.83;;;;;;;3.75;100.00;100391.91;4970420;28;20042;-59
2023/01/24 09:59:09;;;;;;;89.13;36.40;;;;;;;3.78;100.00;100366.63;4972832;28;20042;-61
2023/01/24 10:01:37;;;;;;;89.47;37.40;;;;;;;3.72;100.00;100388.41;4973810;28;20109;-59
2023/01/24 10:04:02;;;;;;;88.87;36.27;;;;;;;3.59;100.00;100387.94;4972796;28;20031;-59
2023/01/24 10:06:30;;;;;;;88.57;36.00;;;;;;;3.29;100.00;100374.13;4973534;28;20389;-60
2023/01/24 10:09:14;;;;;;;89.70;36.67;;;;;;;3.20;100.00;100377.19;4970854;28;20065;-60
2023/01/24 10:11:55;;;;;;;89.80;37.20;;;;;;;3.18;100.00;100373.69;4968644;28;20445;-60
2023/01/24 10:14:59;;;;;;;90.90;36.83;;;;;;;3.10;100.00;100376.75;4972539;28;20031;-59
2023/01/24 10:17:43;;;;;;;91.00;36.70;;;;;;;3.04;100.00;100381.59;4987068;28;20684;-59
2023/01/24 10:20:27;;;;;;;90.97;36.87;;;;;;;3.00;100.00;100382.28;4987654;28;20137;-59
2023/01/24 10:23:08;;;;;;;90.90;36.63;;;;;;;2.89;100.00;100375.91;4988164;28;20065;-59
2023/01/24 10:25:42;;;;;;;91.83;37.10;;;;;;;2.98;100.00;100381.34;4987989;28;20056;-59
2023/01/24 10:28:18;;;;;;;92.30;37.67;;;;;;;2.91;100.00;100382.78;4981712;28;20050;-58
2023/01/24 10:30:54;;;;;;;92.13;37.10;;;;;;;2.85;100.00;100384.19;4988421;28;20060;-61
2023/01/24 10:33:20;;;;;;;92.30;37.20;;;;;;;2.89;100.00;100378.44;4985490;28;20156;-60
2023/01/24 10:35:59;;;;;;;92.53;37.60;;;;;;;2.91;100.00;100387.84;4969842;28;20428;-61
2023/01/24 10:38:26;;;;;;;92.73;37.33;;;;;;;2.90;100.00;100390.31;4984995;28;20067;-60
2023/01/24 10:41:14;;;;;;;92.90;37.27;;;;;;;2.60;100.00;100357.91;4987154;28;20069;-59
2023/01/24 10:43:43;;;;;;;92.43;37.17;;;;;;;2.76;100.00;100375.44;4984268;28;20250;-60
2023/01/24 10:46:20;;;;;;;92.70;36.90;;;;;;;2.80;100.00;100383.16;4984613;28;20107;-59
2023/01/24 10:48:51;;;;;;;93.37;37.90;;;;;;;2.85;100.00;100374.94;4985665;28;20156;-63
2023/01/24 10:51:19;;;;;;;93.43;37.27;;;;;;;2.82;100.00;100379.00;4980185;28;20088;-60
2023/01/24 10:53:46;;;;;;;93.53;37.50;;;;;;;2.87;100.00;100380.06;4972288;28;20088;-61
2023/01/24 10:56:13;;;;;;;93.33;37.00;;;;;;;2.82;100.00;100356.22;4971574;28;20049;-60
2023/01/24 10:58:41;;;;;;;92.30;37.10;;;;;;;2.89;100.00;100373.38;4967736;28;20136;-58
2023/01/24 11:01:19;;;;;;;93.77;37.10;;;;;;;2.77;100.00;100371.22;4970247;28;20034;-57
2023/01/24 11:03:47;;;;;;;94.23;37.33;;;;;;;2.75;100.00;100339.94;4971193;28;20039;-60
2023/01/24 11:06:21;;;;;;;93.57;37.20;;;;;;;2.79;100.00;100369.66;4972867;28;20051;-60
2023/01/24 11:08:54;;;;;;;93.17;37.20;;;;;;;2.83;100.00;100363.91;4971579;28;20050;-60
2023/01/24 11:11:28;;;;;;;94.17;37.50;;;;;;;2.70;100.00;100359.13;4971543;28;20100;-61
2023/01/24 11:13:56;;;;;;;94.17;37.30;;;;;;;2.91;100.00;100360.00;4970823;28;20081;-60
2023/01/24 11:16:50;;;;;;;93.70;37.30;;;;;;;2.84;100.00;100360.56;4971092;28;20446;-59
2023/01/24 11:19:25;;;;;;;94.20;37.40;;;;;;;2.72;100.00;100355.84;4972561;28;20046;-59
2023/01/24 11:21:54;;;;;;;94.03;36.90;;;;;;;2.70;100.00;100352.41;4969775;28;20042;-59
2023/01/24 11:24:21;;;;;;;93.50;36.93;;;;;;;2.76;100.00;100356.84;4970836;28;20042;-58
2023/01/24 11:27:02;;;;;;;93.87;37.37;;;;;;;2.75;100.00;100345.88;4970196;28;20380;-61
2023/01/24 11:29:29;;;;;;;93.20;36.93;;;;;;;2.70;100.00;100314.44;4970762;28;20137;-60
2023/01/24 11:32:00;;;;;;;93.70;37.10;;;;;;;2.63;100.00;100337.75;4969885;28;20133;-59
2023/01/24 11:34:28;;;;;;;93.77;37.07;;;;;;;2.65;100.00;100335.31;4971687;28;20038;-58
2023/01/24 11:37:13;;;;;;;93.77;37.47;;;;;;;2.61;100.00;100328.38;4969914;28;20483;-58
2023/01/24 11:39:57;;;;;;;94.40;37.10;;;;;;;2.56;100.00;100323.13;4969868;28;20084;-58
2023/01/24 11:42:47;;;;;;;94.10;37.53;;;;;;;2.68;100.00;100331.22;4969413;28;20062;-59
2023/01/24 11:45:26;;;;;;;94.73;37.10;;;;;;;2.59;100.00;100325.78;4970412;28;20045;-60
2023/01/24 11:48:20;;;;;;;95.37;37.27;;;;;;;2.65;100.00;100317.59;4969310;28;20140;-60
2023/01/24 11:50:58;;;;;;;94.47;36.53;;;;;;;2.55;100.00;100308.75;4970269;28;20066;-60
2023/01/24 11:53:33;;;;;;;95.27;37.03;;;;;;;2.53;100.00;100315.44;4985122;28;20096;-60
2023/01/24 11:56:26;;;;;;;95.77;37.57;;;;;;;2.65;100.00;100315.03;4970891;28;20050;-60
2023/01/24 11:59:20;;;;;;;94.70;36.57;;;;;;;2.47;100.00;100286.47;4986720;28;20066;-59